Time;durP1;ratioP1;P1;durP2;ratioP2;P2;SDS_P1;SDS_P2;PMS_P1;PMS_P2;Temp;Humidity;BMP_temperature;BMP_pressure;BME280_temperature;BME280_humidity;BME280_pressure;Samples;Min_cycle;Max_cycle;Signal;HPM_P1;HPM_P2
2022/08/28 00:00:58;;;;;;;9.43;3.65;;;;;;;13.83;nan;101907.94;5033642;28;20038;-59
2022/08/28 00:03:23;;;;;;;6.88;3.55;;;;;;;13.81;nan;101906.22;5033576;28;20065;-60
2022/08/28 00:05:48;;;;;;;9.25;3.25;;;;;;;13.81;nan;101909.72;5015080;28;20084;-62
2022/08/28 00:08:15;;;;;;;9.50;4.03;;;;;;;13.85;nan;101899.94;5033291;28;20037;-60
2022/08/28 00:10:41;;;;;;;10.05;4.15;;;;;;;13.83;nan;101894.69;5015455;28;20073;-62
2022/08/28 00:13:08;;;;;;;9.13;3.80;;;;;;;13.86;nan;101902.56;5015506;28;20088;-59
2022/08/28 00:15:36;;;;;;;9.32;4.25;;;;;;;13.89;nan;101909.53;5015115;28;20128;-59
2022/08/28 00:18:03;;;;;;;6.35;3.30;;;;;;;13.90;nan;101908.59;5033168;28;20033;-59
2022/08/28 00:20:29;;;;;;;6.57;4.35;;;;;;;13.88;nan;101910.44;5014352;28;20025;-61
2022/08/28 00:22:55;;;;;;;10.93;3.90;;;;;;;13.86;nan;101917.56;5015404;28;20391;-59
2022/08/28 00:25:23;;;;;;;7.75;4.10;;;;;;;13.75;nan;101901.97;5015910;28;20040;-59
2022/08/28 00:27:57;;;;;;;9.57;3.15;;;;;;;13.50;nan;101854.19;5015452;28;20124;-58
2022/08/28 00:30:29;;;;;;;12.18;3.80;;;;;;;13.44;nan;101861.44;5015470;28;20034;-60
2022/08/28 00:32:58;;;;;;;6.35;3.58;;;;;;;13.65;nan;101889.06;5032951;28;20033;-59
2022/08/28 00:35:24;;;;;;;12.27;4.43;;;;;;;13.75;nan;101909.03;5014759;28;20135;-59
2022/08/28 00:37:50;;;;;;;5.05;3.42;;;;;;;13.76;nan;101908.13;5015282;28;20076;-60
2022/08/28 00:40:18;;;;;;;11.07;4.32;;;;;;;13.75;nan;101919.63;5032903;28;20033;-61
2022/08/28 00:42:47;;;;;;;8.18;3.67;;;;;;;13.48;nan;101878.97;5032863;28;20059;-62
2022/08/28 00:45:14;;;;;;;6.75;3.17;;;;;;;13.70;nan;101913.59;5015548;28;20084;-60
2022/08/28 00:47:40;;;;;;;9.13;3.72;;;;;;;13.67;nan;101919.84;5014956;28;20428;-59
2022/08/28 00:50:07;;;;;;;7.38;3.53;;;;;;;13.45;nan;101868.47;5015410;28;20087;-62
2022/08/28 00:52:33;;;;;;;7.88;3.42;;;;;;;13.70;nan;101905.66;5015056;28;20116;-59
2022/08/28 00:55:02;;;;;;;6.38;3.05;;;;;;;13.71;nan;101912.69;5032682;28;20120;-63
2022/08/28 00:57:31;;;;;;;7.82;3.58;;;;;;;13.69;nan;101920.66;5032192;28;20432;-61
2022/08/28 00:59:56;;;;;;;8.55;3.47;;;;;;;13.43;nan;101873.78;5032479;28;20037;-59
2022/08/28 01:02:22;;;;;;;9.50;3.33;;;;;;;13.66;nan;101912.81;5014714;28;20532;-59
2022/08/28 01:04:48;;;;;;;8.38;3.53;;;;;;;13.64;nan;101905.84;5032516;28;20037;-59
2022/08/28 01:07:14;;;;;;;10.25;3.60;;;;;;;13.63;nan;101909.41;5032261;28;20034;-61
2022/08/28 01:09:45;;;;;;;9.48;3.40;;;;;;;13.41;nan;101875.63;5032447;28;20037;-59
2022/08/28 01:12:12;;;;;;;;;;;;;;;13.64;nan;101913.78;5014974;28;20451;-61
2022/08/28 01:14:39;;;;;;;9.98;4.22;;;;;;;13.41;nan;101875.63;5032210;28;19913;-60
2022/08/28 01:17:05;;;;;;;6.18;3.50;;;;;;;13.31;nan;101860.06;5014493;28;20044;-59
2022/08/28 01:19:40;;;;;;;8.25;4.10;;;;;;;13.25;nan;101853.13;5014533;28;21326;-60
2022/08/28 01:22:22;;;;;;;5.20;3.47;;;;;;;13.43;nan;101872.91;5032453;28;20029;-60
2022/08/28 01:24:48;;;;;;;9.40;3.70;;;;;;;13.49;nan;101881.53;5030986;28;20123;-61
2022/08/28 01:27:14;;;;;;;10.50;3.70;;;;;;;13.61;nan;101906.78;5014405;28;20032;-58
2022/08/28 01:29:40;;;;;;;9.57;2.95;;;;;;;13.62;nan;101894.44;5032094;28;20033;-59
2022/08/28 01:32:05;;;;;;;11.40;3.75;;;;;;;13.63;nan;101893.53;5031912;28;20112;-60
2022/08/28 01:34:31;;;;;;;8.13;3.33;;;;;;;13.41;nan;101869.44;5014537;28;20057;-60
2022/08/28 01:36:57;;;;;;;5.97;3.42;;;;;;;13.46;nan;101864.88;5032241;28;20472;-60
2022/08/28 01:39:23;;;;;;;8.88;4.53;;;;;;;13.72;nan;101901.22;5014394;28;20069;-60
2022/08/28 01:41:51;;;;;;;5.32;2.53;;;;;;;13.32;nan;101835.31;5014346;28;20046;-62
2022/08/28 01:44:18;;;;;;;8.00;3.15;;;;;;;13.57;nan;101883.13;5032106;28;20446;-61
2022/08/28 01:46:44;;;;;;;11.63;4.00;;;;;;;13.64;nan;101905.84;5014407;28;20541;-59
2022/08/28 01:49:10;;;;;;;5.32;3.20;;;;;;;13.31;nan;101852.13;5031882;28;20040;-58
2022/08/28 01:51:40;;;;;;;7.07;3.00;;;;;;;13.57;nan;101909.56;5014473;28;20029;-60
2022/08/28 01:54:06;;;;;;;8.90;3.50;;;;;;;13.52;nan;101894.69;5032035;28;20025;-60
2022/08/28 01:56:31;;;;;;;8.80;3.30;;;;;;;13.52;nan;101909.69;5031782;28;20408;-61
2022/08/28 01:58:57;;;;;;;8.10;3.40;;;;;;;13.50;nan;101903.59;5032318;28;20025;-60
2022/08/28 02:01:23;;;;;;;6.82;3.10;;;;;;;13.47;nan;101911.59;5014274;28;20025;-60
2022/08/28 02:03:51;;;;;;;5.70;3.60;;;;;;;13.46;nan;101901.91;5014191;28;20057;-63
2022/08/28 02:06:17;;;;;;;8.68;3.60;;;;;;;13.45;nan;101902.84;5031769;28;20038;-60
2022/08/28 02:08:42;;;;;;;6.75;3.15;;;;;;;13.40;nan;101910.03;4997693;28;20037;-60
2022/08/28 02:11:08;;;;;;;5.25;3.13;;;;;;;12.89;nan;101841.75;5014010;28;20041;-60
2022/08/28 02:13:35;;;;;;;9.13;3.35;;;;;;;13.02;nan;101863.41;4997676;28;20045;-60
2022/08/28 02:16:00;;;;;;;10.20;3.50;;;;;;;13.17;nan;101899.19;5031738;28;20041;-60
2022/08/28 02:18:26;;;;;;;8.05;3.97;;;;;;;13.23;nan;101921.06;5031820;28;20400;-60
2022/08/28 02:20:51;;;;;;;9.45;3.53;;;;;;;13.23;nan;101912.25;5031831;28;20038;-57
2022/08/28 02:23:16;;;;;;;7.50;3.80;;;;;;;13.22;nan;101918.47;5031748;28;20044;-61
2022/08/28 02:25:42;;;;;;;12.07;4.20;;;;;;;13.15;nan;101911.59;5013694;28;20487;-61
2022/08/28 02:28:07;;;;;;;9.10;3.95;;;;;;;12.87;nan;101869.97;5031829;28;20038;-59
2022/08/28 02:30:34;;;;;;;9.00;3.97;;;;;;;12.94;nan;101892.69;5031796;28;20072;-58
2022/08/28 02:32:59;;;;;;;7.45;3.60;;;;;;;12.75;nan;101875.59;5014176;28;20037;-61
2022/08/28 02:35:24;;;;;;;7.70;3.83;;;;;;;12.92;nan;101905.09;5031672;28;20037;-60
2022/08/28 02:37:50;;;;;;;8.38;4.13;;;;;;;12.90;nan;101914.81;5031581;28;20042;-59
2022/08/28 02:40:19;;;;;;;5.18;3.03;;;;;;;12.75;nan;101902.00;5031307;28;20037;-61
2022/08/28 02:42:45;;;;;;;8.57;3.97;;;;;;;12.77;nan;101904.59;5030912;28;20130;-59
2022/08/28 02:45:11;;;;;;;8.30;4.25;;;;;;;12.48;nan;101870.09;5017469;28;20095;-62
2022/08/28 02:47:38;;;;;;;6.70;3.53;;;;;;;12.38;nan;101867.66;5034895;28;20059;-60
2022/08/28 02:50:06;;;;;;;9.10;4.05;;;;;;;12.67;nan;101913.63;5034913;28;20044;-56
2022/08/28 02:52:32;;;;;;;7.32;3.67;;;;;;;12.38;nan;101867.66;5034847;28;20509;-60
2022/08/28 02:54:57;;;;;;;6.38;4.00;;;;;;;12.39;nan;101881.75;5034703;28;20033;-59
2022/08/28 02:57:22;;;;;;;10.10;3.88;;;;;;;12.38;nan;101877.34;5017339;28;20041;-60
2022/08/28 02:59:47;;;;;;;6.05;3.40;;;;;;;12.62;nan;101923.44;5035014;28;20033;-59
2022/08/28 03:02:13;;;;;;;8.35;3.53;;;;;;;12.50;nan;101906.13;5034460;28;20048;-60
2022/08/28 03:04:38;;;;;;;7.03;3.72;;;;;;;12.56;nan;101916.53;5034689;28;20033;-61
2022/08/28 03:07:06;;;;;;;9.27;3.97;;;;;;;12.61;nan;101921.72;5034849;28;20124;-60
2022/08/28 03:09:31;;;;;;;10.23;4.25;;;;;;;12.69;nan;101925.06;5034349;28;20033;-61
2022/08/28 03:11:57;;;;;;;9.73;4.10;;;;;;;12.72;nan;101930.25;5034494;28;20051;-59
2022/08/28 03:14:23;;;;;;;6.15;3.67;;;;;;;12.70;nan;101921.47;5016788;28;20412;-61
2022/08/28 03:16:48;;;;;;;11.85;3.83;;;;;;;12.65;nan;101915.44;5034582;28;20477;-62
2022/08/28 03:19:14;;;;;;;7.90;4.03;;;;;;;12.68;nan;101920.66;5016704;28;20117;-60
2022/08/28 03:21:40;;;;;;;8.25;3.00;;;;;;;12.73;nan;101918.75;5034300;28;20032;-64
2022/08/28 03:24:05;;;;;;;9.27;3.70;;;;;;;12.47;nan;101882.41;5016489;28;20044;-60
2022/08/28 03:26:31;;;;;;;5.30;3.20;;;;;;;12.71;nan;101918.81;5016475;28;20037;-60
2022/08/28 03:28:56;;;;;;;6.65;3.60;;;;;;;12.72;nan;101924.97;5016433;28;20042;-58
2022/08/28 03:31:24;;;;;;;7.88;3.35;;;;;;;12.75;nan;101931.06;5034315;28;20042;-59
2022/08/28 03:33:50;;;;;;;11.10;3.70;;;;;;;12.76;nan;101916.94;5016593;28;20026;-60
2022/08/28 03:36:20;;;;;;;5.10;3.47;;;;;;;12.66;nan;101883.72;5016310;28;20040;-59
2022/08/28 03:38:46;;;;;;;9.00;3.60;;;;;;;13.04;nan;101916.25;5016245;28;20064;-59
2022/08/28 03:41:13;;;;;;;5.88;3.10;;;;;;;13.16;nan;101924.78;5034226;28;20076;-61
2022/08/28 03:43:39;;;;;;;7.90;3.55;;;;;;;12.94;nan;101876.84;5034163;28;20524;-60
2022/08/28 03:46:05;;;;;;;6.22;3.10;;;;;;;13.08;nan;101894.13;5016096;28;20160;-59
2022/08/28 03:48:36;;;;;;;12.32;4.50;;;;;;;13.33;nan;101929.63;5033613;28;20183;-60
2022/08/28 03:51:07;;;;;;;9.25;3.28;;;;;;;13.35;nan;101922.50;5033780;28;20079;-59
2022/08/28 03:53:32;;;;;;;8.82;2.92;;;;;;;13.36;nan;101927.78;5016221;28;20488;-63
2022/08/28 03:55:58;;;;;;;8.63;3.20;;;;;;;13.10;nan;101887.94;5033757;28;20068;-59
2022/08/28 03:58:24;;;;;;;14.80;3.78;;;;;;;13.28;nan;101932.38;5033572;28;20030;-63
2022/08/28 04:00:49;;;;;;;6.70;3.50;;;;;;;13.38;nan;101931.22;5026497;28;20400;-61
2022/08/28 04:03:15;;;;;;;6.07;2.97;;;;;;;13.40;nan;101932.03;5045308;28;20029;-59
2022/08/28 04:05:42;;;;;;;7.88;3.03;;;;;;;13.21;nan;101896.44;5045638;28;20194;-62
2022/08/28 04:08:08;;;;;;;6.43;3.35;;;;;;;13.49;nan;101944.16;5050187;28;20114;-60
2022/08/28 04:10:35;;;;;;;11.02;3.70;;;;;;;13.53;nan;101951.13;5053101;28;20036;-63
2022/08/28 04:13:02;;;;;;;9.23;3.35;;;;;;;13.46;nan;101923.94;5052205;28;20049;-61
2022/08/28 04:15:28;;;;;;;10.43;3.25;;;;;;;13.59;nan;101942.13;5035428;28;20039;-59
2022/08/28 04:17:53;;;;;;;12.90;3.20;;;;;;;13.69;nan;101948.94;5052788;28;20087;-60
2022/08/28 04:20:19;;;;;;;13.65;3.38;;;;;;;13.74;nan;101944.38;5052187;28;20028;-60
2022/08/28 04:22:48;;;;;;;8.15;3.05;;;;;;;13.73;nan;101948.78;5034356;28;20040;-61
2022/08/28 04:25:13;;;;;;;9.02;2.90;;;;;;;13.82;nan;101945.88;5052749;28;20534;-62
2022/08/28 04:27:40;;;;;;;6.45;2.50;;;;;;;13.91;nan;101953.56;5052607;28;20040;-60
2022/08/28 04:30:07;;;;;;;7.80;2.95;;;;;;;13.87;nan;101948.38;5052658;28;20039;-61
2022/08/28 04:32:36;;;;;;;9.98;3.00;;;;;;;13.99;nan;101962.16;5052796;28;20044;-61
2022/08/28 04:35:06;;;;;;;6.93;3.00;;;;;;;14.04;nan;101948.78;5035162;28;20041;-61
2022/08/28 04:37:32;;;;;;;7.13;2.85;;;;;;;14.04;nan;101954.94;5052734;28;20025;-60
2022/08/28 04:39:57;;;;;;;13.60;4.30;;;;;;;13.96;nan;101926.94;5052787;28;20067;-61
2022/08/28 04:42:23;;;;;;;5.28;2.50;;;;;;;14.18;nan;101954.56;5035042;28;20067;-60
2022/08/28 04:44:48;;;;;;;9.43;3.78;;;;;;;14.00;nan;101924.19;5052855;28;20040;-61
2022/08/28 04:47:14;;;;;;;7.55;2.50;;;;;;;14.24;nan;101953.50;5034343;28;20094;-60
2022/08/28 04:49:39;;;;;;;8.10;3.00;;;;;;;14.31;nan;101955.91;5052778;28;20040;-63
2022/08/28 04:52:05;;;;;;;6.88;2.65;;;;;;;14.33;nan;101951.47;5034991;28;20037;-61
2022/08/28 04:54:33;;;;;;;6.65;3.00;;;;;;;14.31;nan;101947.97;5052860;28;20040;-60
2022/08/28 04:57:00;;;;;;;7.10;3.08;;;;;;;14.20;nan;101928.00;5034520;28;20127;-63
2022/08/28 04:59:26;;;;;;;4.90;2.63;;;;;;;14.22;nan;101927.06;5034630;28;20544;-61
2022/08/28 05:01:52;;;;;;;7.38;2.58;;;;;;;14.45;nan;101966.97;5034601;28;20056;-60
2022/08/28 05:04:18;;;;;;;9.63;3.40;;;;;;;14.51;nan;101980.03;5052613;28;20106;-63
2022/08/28 05:06:45;;;;;;;12.70;3.15;;;;;;;14.27;nan;101927.81;5051598;28;20037;-62
2022/08/28 05:09:11;;;;;;;8.15;3.03;;;;;;;14.54;nan;101982.59;5052419;28;20037;-61
2022/08/28 05:11:37;;;;;;;7.40;2.65;;;;;;;14.56;nan;101980.75;5034780;28;20498;-62
2022/08/28 05:14:04;;;;;;;9.45;3.30;;;;;;;14.51;nan;101985.34;5034125;28;20135;-65
2022/08/28 05:16:29;;;;;;;7.45;2.83;;;;;;;14.49;nan;101978.34;5052327;28;20033;-61
2022/08/28 05:18:59;;;;;;;11.52;3.35;;;;;;;14.48;nan;101993.38;5034203;28;20039;-62
2022/08/28 05:21:24;;;;;;;4.88;2.63;;;;;;;14.31;nan;101965.63;5052543;28;20448;-60
2022/08/28 05:23:53;;;;;;;5.38;2.90;;;;;;;14.46;nan;101987.28;5052065;28;20116;-63
2022/08/28 05:26:19;;;;;;;10.90;2.88;;;;;;;14.50;nan;101993.34;5034012;28;20037;-60
2022/08/28 05:28:45;;;;;;;7.43;2.47;;;;;;;14.47;nan;101985.50;5034136;28;20053;-60
2022/08/28 05:31:17;;;;;;;7.63;3.00;;;;;;;14.60;nan;102000.09;5051977;28;20061;-61
2022/08/28 05:33:47;;;;;;;7.43;2.75;;;;;;;14.60;nan;101995.66;5018274;28;20035;-60
2022/08/28 05:36:13;;;;;;;9.45;3.17;;;;;;;14.37;nan;101944.28;5034247;28;20065;-62
2022/08/28 05:38:39;;;;;;;5.72;2.42;;;;;;;14.54;nan;101963.19;5051994;28;20081;-60
2022/08/28 05:41:05;;;;;;;9.57;2.95;;;;;;;14.83;nan;102008.19;5017699;28;20127;-59
2022/08/28 05:43:31;;;;;;;8.00;2.65;;;;;;;14.63;nan;101965.53;5051711;28;20037;-60
2022/08/28 05:46:03;;;;;;;5.70;2.22;;;;;;;14.85;nan;102011.69;5017616;28;20380;-59
2022/08/28 05:48:30;;;;;;;4.95;2.42;;;;;;;14.80;nan;101989.72;5033917;28;20079;-59
2022/08/28 05:51:07;;;;;;;5.18;2.08;;;;;;;14.88;nan;102005.41;5051970;28;20538;-61
2022/08/28 05:53:40;;;;;;;6.45;2.05;;;;;;;14.80;nan;101984.44;5051746;28;20034;-61
2022/08/28 05:56:21;;;;;;;10.60;2.55;;;;;;;14.86;nan;102009.88;5017486;28;20468;-59
2022/08/28 05:58:47;;;;;;;7.28;2.75;;;;;;;14.81;nan;101995.91;5051852;28;20075;-60
2022/08/28 06:01:21;;;;;;;8.15;2.30;;;;;;;14.80;nan;102013.59;5017627;28;20061;-60
2022/08/28 06:03:54;;;;;;;7.43;2.38;;;;;;;14.85;nan;102024.94;5051829;28;20391;-64
2022/08/28 06:06:20;;;;;;;3.55;2.15;;;;;;;14.85;nan;102022.28;5051585;28;20040;-61
2022/08/28 06:08:46;;;;;;;5.70;2.10;;;;;;;14.86;nan;102026.66;5051265;28;20041;-62
2022/08/28 06:11:11;;;;;;;5.10;2.15;;;;;;;14.57;nan;101971.91;5051514;28;20036;-59
2022/08/28 06:13:37;;;;;;;5.03;2.20;;;;;;;14.54;nan;101971.13;5051697;28;20162;-60
2022/08/28 06:16:02;;;;;;;6.70;3.05;;;;;;;14.79;nan;102016.31;5034131;28;20119;-63
2022/08/28 06:18:28;;;;;;;6.45;2.25;;;;;;;14.76;nan;102019.94;5054499;28;20472;-60
2022/08/28 06:20:53;;;;;;;5.78;2.65;;;;;;;14.76;nan;102029.66;5055396;28;20143;-61
2022/08/28 06:23:20;;;;;;;4.70;2.10;;;;;;;14.75;nan;102023.47;5055294;28;20233;-63
2022/08/28 06:25:47;;;;;;;4.07;2.15;;;;;;;14.61;nan;102007.13;5055452;28;20025;-63
2022/08/28 06:28:22;;;;;;;4.00;1.88;;;;;;;14.88;nan;102018.66;5037489;28;20132;-60
2022/08/28 06:30:49;;;;;;;9.60;2.63;;;;;;;15.08;nan;102024.22;5037420;28;20033;-61
2022/08/28 06:33:19;;;;;;;7.70;2.05;;;;;;;14.92;nan;101975.22;5036805;28;20310;-61
2022/08/28 06:35:47;;;;;;;4.83;2.87;;;;;;;15.06;nan;101970.38;5037810;28;20029;-62
2022/08/28 06:38:14;;;;;;;6.90;2.42;;;;;;;15.49;nan;102034.34;5055254;28;20029;-60
2022/08/28 06:40:58;;;;;;;10.77;2.50;;;;;;;15.63;nan;102036.53;5037305;28;20037;-59
2022/08/28 06:43:26;;;;;;;3.40;1.95;;;;;;;15.55;nan;102001.44;5055058;28;20057;-59
2022/08/28 06:45:53;;;;;;;7.30;2.22;;;;;;;15.91;nan;102044.38;5055036;28;20040;-59
2022/08/28 06:48:19;;;;;;;7.85;2.20;;;;;;;16.00;nan;102044.94;5054368;28;20028;-60
2022/08/28 06:50:48;;;;;;;3.85;2.00;;;;;;;16.02;nan;102042.25;5037250;28;20433;-60
2022/08/28 06:53:15;;;;;;;5.30;1.95;;;;;;;15.70;nan;102000.91;5037369;28;20029;-60
2022/08/28 06:55:40;;;;;;;5.50;1.85;;;;;;;15.48;nan;101962.75;5054764;28;20094;-60
2022/08/28 06:58:07;;;;;;;4.55;2.13;;;;;;;15.97;nan;102047.69;5054777;28;20472;-62
2022/08/28 07:00:34;;;;;;;6.97;2.00;;;;;;;15.93;nan;102046.09;5054703;28;20496;-60
2022/08/28 07:03:00;;;;;;;6.93;2.00;;;;;;;15.79;nan;102024.44;5037053;28;20440;-62
2022/08/28 07:05:25;;;;;;;7.05;2.20;;;;;;;15.95;nan;102057.53;5036832;28;20037;-58
2022/08/28 07:07:50;;;;;;;9.48;1.77;;;;;;;16.13;nan;102056.88;5054483;28;20231;-60
2022/08/28 07:10:16;;;;;;;4.63;1.77;;;;;;;16.31;nan;102058.84;5054371;28;20033;-60
2022/08/28 07:12:41;;;;;;;4.03;1.60;;;;;;;16.48;nan;102050.25;5054081;28;20053;-63
2022/08/28 07:15:07;;;;;;;5.82;2.08;;;;;;;16.74;nan;102065.25;5053379;28;20040;-61
2022/08/28 07:17:33;;;;;;;5.82;2.08;;;;;;;17.02;nan;102057.91;5052226;28;20147;-60
2022/08/28 07:19:58;;;;;;;4.93;1.60;;;;;;;17.07;nan;102044.44;5020067;28;20519;-59
2022/08/28 07:22:25;;;;;;;5.90;2.30;;;;;;;17.24;nan;102040.16;5054011;28;20176;-62
2022/08/28 07:24:54;;;;;;;6.18;2.17;;;;;;;17.39;nan;102050.19;5054304;28;20028;-61
2022/08/28 07:27:20;;;;;;;5.82;1.70;;;;;;;17.25;nan;102038.38;5053870;28;20037;-62
2022/08/28 07:29:46;;;;;;;3.85;1.60;;;;;;;17.46;nan;102032.13;5053357;28;20037;-66
2022/08/28 07:32:12;;;;;;;4.10;1.58;;;;;;;17.77;nan;102111.66;5053988;28;20029;-63
2022/08/28 07:34:38;;;;;;;4.93;1.80;;;;;;;17.93;nan;102094.06;5054305;28;20041;-62
2022/08/28 07:37:05;;;;;;;4.45;1.85;;;;;;;17.64;nan;102067.81;5019612;28;20037;-63
2022/08/28 07:39:30;;;;;;;3.92;1.70;;;;;;;18.10;nan;102111.97;5053747;28;20100;-62
2022/08/28 07:41:56;;;;;;;4.80;1.55;;;;;;;18.03;nan;102095.41;5053553;28;20128;-62
2022/08/28 07:47:06;;;;;;;7.05;2.03;;;;;;;18.37;nan;102111.66;5051976;28;20407;-61
2022/08/28 07:49:33;;;;;;;4.95;2.20;;;;;;;18.20;nan;102068.88;5035501;28;20036;-63
2022/08/28 07:51:59;;;;;;;2.58;1.80;;;;;;;18.71;nan;102118.16;5035267;28;20029;-63
2022/08/28 07:54:24;;;;;;;6.65;2.22;;;;;;;18.75;nan;102127.75;5053279;28;20141;-62
2022/08/28 07:56:50;;;;;;;3.38;1.63;;;;;;;18.92;nan;102122.47;5053367;28;20044;-63
2022/08/28 07:59:16;;;;;;;4.90;1.80;;;;;;;19.29;nan;102129.63;5052905;28;20486;-63
2022/08/28 08:01:45;;;;;;;6.07;1.73;;;;;;;19.73;nan;102120.31;5053149;28;20057;-62
2022/08/28 08:04:12;;;;;;;5.13;1.83;;;;;;;20.32;nan;102137.78;5053535;28;20108;-63
2022/08/28 08:06:38;;;;;;;9.05;2.45;;;;;;;19.81;nan;102088.75;5019010;28;20063;-62
2022/08/28 08:09:05;;;;;;;6.55;2.45;;;;;;;19.71;nan;102142.69;5052926;28;20112;-63
2022/08/28 08:11:31;;;;;;;4.07;1.77;;;;;;;20.14;nan;102140.44;5035445;28;20063;-64
2022/08/28 08:13:56;;;;;;;4.32;1.58;;;;;;;20.48;nan;102128.91;5053771;28;20092;-63
2022/08/28 08:16:24;;;;;;;2.17;1.50;;;;;;;20.46;nan;102154.84;5035736;28;20067;-65
2022/08/28 08:18:50;;;;;;;3.70;1.90;;;;;;;20.42;nan;102149.75;5053298;28;20103;-63
2022/08/28 08:21:19;;;;;;;1.88;1.20;;;;;;;20.31;nan;102114.69;5035204;28;20129;-61
2022/08/28 08:23:45;;;;;;;5.28;1.85;;;;;;;20.90;nan;102146.25;5052298;28;20041;-63
2022/08/28 08:26:13;;;;;;;4.07;1.60;;;;;;;20.82;nan;102109.19;5034429;28;20040;-64
2022/08/28 08:28:40;;;;;;;3.28;1.40;;;;;;;21.78;nan;102137.63;5052075;28;20043;-65
2022/08/28 08:31:10;;;;;;;3.88;1.40;;;;;;;22.64;nan;102181.63;5035286;28;20040;-65
2022/08/28 08:33:37;;;;;;;4.47;1.60;;;;;;;23.27;nan;102182.97;5051740;28;20492;-63
2022/08/28 08:36:06;;;;;;;4.13;1.40;;;;;;;23.36;nan;102149.28;5035016;28;20120;-65
2022/08/28 08:38:32;;;;;;;6.13;1.95;;;;;;;22.95;nan;102130.47;5034573;28;20084;-63
2022/08/28 08:40:59;;;;;;;4.95;1.30;;;;;;;23.16;nan;102130.91;5051975;28;20040;-62
2022/08/28 08:43:27;;;;;;;4.90;1.67;;;;;;;22.93;nan;102186.09;5052705;28;20048;-66
2022/08/28 08:45:53;;;;;;;4.32;1.58;;;;;;;21.68;nan;102120.34;5018644;28;20033;-63
2022/08/28 08:48:25;;;;;;;5.32;1.95;;;;;;;20.87;nan;102141.06;5052485;28;20495;-65
2022/08/28 08:50:51;;;;;;;3.95;1.58;;;;;;;20.26;nan;102120.25;5052739;28;20033;-64
2022/08/28 08:53:33;;;;;;;3.95;1.40;;;;;;;19.86;nan;102158.84;5034474;28;20025;-65
2022/08/28 08:56:01;;;;;;;4.43;2.00;;;;;;;19.38;nan;102163.91;5035119;28;20033;-64
2022/08/28 08:58:39;;;;;;;5.30;1.77;;;;;;;19.14;nan;102125.88;5052410;28;20032;-64
2022/08/28 09:01:44;;;;;;;4.85;1.67;;;;;;;19.08;nan;102150.19;5052487;28;20130;-64
2022/08/28 09:04:45;;;;;;;5.32;1.80;;;;;;;19.20;nan;102156.75;5052027;28;20075;-64
2022/08/28 09:07:19;;;;;;;5.22;1.52;;;;;;;20.04;nan;102162.41;5017405;28;20032;-63
2022/08/28 09:09:48;;;;;;;4.82;1.58;;;;;;;21.07;nan;102173.81;5051034;28;20071;-69
2022/08/28 09:12:25;;;;;;;2.50;1.35;;;;;;;22.32;nan;102175.56;5017640;28;20049;-66
2022/08/28 09:15:04;;;;;;;2.60;1.40;;;;;;;23.35;nan;102134.13;5034432;28;20025;-63
2022/08/28 09:17:34;;;;;;;5.43;1.40;;;;;;;23.60;nan;102093.09;5034277;28;20059;-63
2022/08/28 09:19:59;;;;;;;2.17;1.33;;;;;;;24.86;nan;102196.44;5018433;28;20025;-64
2022/08/28 09:22:25;;;;;;;3.72;1.30;;;;;;;24.42;nan;102194.13;5034128;28;20516;-63
2022/08/28 09:24:50;;;;;;;4.88;1.30;;;;;;;25.00;nan;102188.22;5052283;28;20338;-63
2022/08/28 09:27:30;;;;;;;3.75;1.60;;;;;;;25.42;nan;102200.44;5052086;28;20033;-66
2022/08/28 09:30:03;;;;;;;4.03;1.80;;;;;;;25.69;nan;102201.09;5034313;28;20389;-66
2022/08/28 09:32:28;;;;;;;4.63;1.50;;;;;;;25.80;nan;102197.63;5052087;28;20024;-67
2022/08/28 09:35:05;;;;;;;4.53;1.53;;;;;;;25.80;nan;102205.72;5051904;28;20033;-63
2022/08/28 09:37:31;;;;;;;4.32;1.13;;;;;;;25.34;nan;102208.19;5051746;28;20315;-67
2022/08/28 09:40:23;;;;;;;3.13;1.52;;;;;;;25.68;nan;102198.53;5052007;28;20033;-64
2022/08/28 09:45:44;;;;;;;4.50;1.48;;;;;;;27.06;nan;102167.03;5052211;28;20094;-66
2022/08/28 09:48:19;;;;;;;4.70;1.25;;;;;;;26.73;nan;102194.03;5051995;28;20037;-65
2022/08/28 09:50:56;;;;;;;7.55;1.80;;;;;;;25.40;nan;102193.41;5034274;28;20037;-65
2022/08/28 09:53:22;;;;;;;3.53;1.50;;;;;;;24.69;nan;102195.84;5055165;28;20083;-64
2022/08/28 09:55:54;;;;;;;5.40;1.52;;;;;;;24.60;nan;102194.66;5037850;28;20519;-64
2022/08/28 09:58:20;;;;;;;6.15;1.52;;;;;;;24.60;nan;102176.69;5055966;28;20434;-64
2022/08/28 10:00:59;;;;;;;2.38;1.02;;;;;;;24.39;nan;102177.31;5038019;28;20469;-61
2022/08/28 10:03:33;;;;;;;3.53;1.50;;;;;;;24.92;nan;102177.13;5021128;28;20103;-61
2022/08/28 10:06:17;;;;;;;3.35;1.48;;;;;;;26.06;nan;102180.31;5037766;28;20040;-59
2022/08/28 10:08:53;;;;;;;2.42;1.35;;;;;;;25.66;nan;102179.75;5037705;28;20064;-60
2022/08/28 10:11:32;;;;;;;4.13;1.30;;;;;;;24.69;nan;102191.34;5037879;28;20428;-60
2022/08/28 10:14:19;;;;;;;4.22;1.55;;;;;;;24.20;nan;102171.50;5055414;28;20048;-60
2022/08/28 10:16:53;;;;;;;6.13;2.10;;;;;;;23.35;nan;102177.13;5055151;28;20049;-61
2022/08/28 10:19:47;;;;;;;4.18;1.70;;;;;;;23.16;nan;102164.00;5055669;28;20059;-60
2022/08/28 10:22:26;;;;;;;4.35;1.77;;;;;;;23.74;nan;102134.22;5000627;28;20102;-62
2022/08/28 10:25:03;;;;;;;4.75;1.60;;;;;;;23.61;nan;102144.06;5054874;28;20025;-61
2022/08/28 10:27:44;;;;;;;3.20;1.13;;;;;;;25.08;nan;102179.56;5037689;28;20112;-60
2022/08/28 10:30:14;;;;;;;2.47;1.48;;;;;;;24.94;nan;102172.50;5055291;28;20033;-61
2022/08/28 10:32:52;;;;;;;5.03;1.90;;;;;;;25.20;nan;102197.56;5037316;28;20031;-62
2022/08/28 10:35:22;;;;;;;3.25;1.52;;;;;;;24.30;nan;102186.03;5055049;28;20197;-63
2022/08/28 10:37:51;;;;;;;4.90;1.65;;;;;;;24.11;nan;102159.50;5037366;28;20518;-62
2022/08/28 10:40:27;;;;;;;4.22;1.52;;;;;;;24.64;nan;102182.69;5055312;28;20044;-61
2022/08/28 10:43:03;;;;;;;4.60;1.42;;;;;;;24.97;nan;102179.50;5055194;28;20115;-62
2022/08/28 10:45:31;;;;;;;3.92;1.60;;;;;;;24.51;nan;102187.22;5037083;28;20032;-61
2022/08/28 10:48:00;;;;;;;5.10;1.27;;;;;;;23.91;nan;102139.31;5054893;28;20040;-61
2022/08/28 10:50:28;;;;;;;3.20;1.63;;;;;;;24.51;nan;102190.78;5055152;28;20033;-60
2022/08/28 10:53:08;;;;;;;2.58;1.40;;;;;;;24.13;nan;102180.94;5054680;28;20108;-61
2022/08/28 10:55:48;;;;;;;4.43;1.70;;;;;;;23.71;nan;102177.44;5037025;28;20029;-62
2022/08/28 10:58:14;;;;;;;4.03;1.40;;;;;;;23.04;nan;102170.16;5036995;28;20036;-61
2022/08/28 11:00:42;;;;;;;2.65;1.48;;;;;;;22.14;nan;102179.31;5054871;28;20123;-62
2022/08/28 11:03:13;;;;;;;4.45;1.55;;;;;;;21.51;nan;102122.28;5036469;28;20060;-66
2022/08/28 11:06:00;;;;;;;4.93;1.63;;;;;;;21.81;nan;102169.59;5054732;28;20025;-66
2022/08/28 11:08:33;;;;;;;3.88;1.48;;;;;;;21.86;nan;102180.06;5036327;28;20377;-64
2022/08/28 11:11:00;;;;;;;5.20;2.85;;;;;;;22.86;nan;102190.97;5037050;28;20037;-64
2022/08/28 11:13:54;;;;;;;3.40;1.65;;;;;;;23.36;nan;102192.28;5054333;28;20403;-62
2022/08/28 11:16:21;;;;;;;3.40;1.40;;;;;;;23.88;nan;102187.91;5050832;28;20485;-62
2022/08/28 11:19:07;;;;;;;2.92;1.40;;;;;;;25.06;nan;102195.88;5036336;28;20468;-62
2022/08/28 11:21:43;;;;;;;3.30;1.50;;;;;;;25.21;nan;102139.13;5054501;28;20040;-61
2022/08/28 11:24:30;;;;;;;2.97;1.20;;;;;;;24.98;nan;102184.78;5036413;28;20044;-63
2022/08/28 11:27:24;;;;;;;4.30;1.27;;;;;;;24.12;nan;102208.78;5053639;28;20033;-62
2022/08/28 11:30:08;;;;;;;3.35;1.58;;;;;;;23.63;nan;102206.66;5054453;28;20037;-62
2022/08/28 11:32:33;;;;;;;2.78;1.30;;;;;;;23.29;nan;102197.16;5036544;28;20037;-64
2022/08/28 11:35:03;;;;;;;2.90;1.50;;;;;;;22.92;nan;102178.97;5036570;28;20110;-64
2022/08/28 11:37:42;;;;;;;3.45;1.13;;;;;;;22.59;nan;102181.06;5036465;28;20279;-62
2022/08/28 11:40:30;;;;;;;4.45;1.20;;;;;;;23.66;nan;102184.94;5037134;28;20069;-64
2022/08/28 11:43:14;;;;;;;1.70;0.98;;;;;;;25.75;nan;102194.38;5054240;28;20489;-63
2022/08/28 11:45:42;;;;;;;3.90;1.50;;;;;;;26.81;nan;102199.69;5054124;28;20056;-61
2022/08/28 11:48:34;;;;;;;4.55;1.23;;;;;;;27.65;nan;102201.88;5054179;28;20039;-64
2022/08/28 11:51:06;;;;;;;3.40;1.35;;;;;;;27.93;nan;102209.44;5007263;28;20041;-62
2022/08/28 11:53:42;;;;;;;3.92;1.70;;;;;;;27.55;nan;102150.41;5036035;28;20040;-63
2022/08/28 11:56:22;;;;;;;6.22;1.52;;;;;;;28.57;nan;102202.09;5035705;28;20434;-60